createdAt,value
2019-03-08T00:00:58.728Z,83.40
2019-03-08T00:03:24.927Z,82.20
2019-03-08T00:05:51.219Z,82.30
2019-03-08T00:08:17.506Z,83.00
2019-03-08T00:10:43.695Z,82.80
2019-03-08T00:13:09.859Z,83.20
2019-03-08T00:15:36.404Z,84.10
2019-03-08T00:18:02.691Z,83.30
2019-03-08T00:20:29.005Z,83.10
2019-03-08T00:22:55.308Z,83.30
2019-03-08T00:25:21.527Z,83.50
2019-03-08T00:27:48.505Z,83.60
2019-03-08T00:30:14.940Z,83.80
2019-03-08T00:32:41.407Z,83.60
2019-03-08T00:35:08.907Z,84.00
2019-03-08T00:37:35.138Z,83.60
2019-03-08T00:40:01.349Z,83.40
2019-03-08T00:42:27.623Z,83.60
2019-03-08T00:44:56.374Z,83.30
2019-03-08T00:47:22.599Z,83.50
2019-03-08T00:49:51.587Z,83.60
2019-03-08T00:52:17.798Z,83.60
2019-03-08T00:54:59.243Z,83.50
2019-03-08T00:57:28.080Z,83.70
2019-03-08T00:59:54.250Z,84.50
2019-03-08T01:02:20.442Z,84.10
2019-03-08T01:04:46.702Z,84.30
2019-03-08T01:07:13.053Z,83.90
2019-03-08T01:09:41.921Z,84.20
2019-03-08T01:12:08.110Z,85.40
2019-03-08T01:14:34.271Z,84.30
2019-03-08T01:17:00.482Z,83.90
2019-03-08T01:19:26.812Z,83.90
2019-03-08T01:21:53.341Z,83.70
2019-03-08T01:24:19.516Z,83.30
2019-03-08T01:26:45.694Z,83.10
2019-03-08T01:29:12.005Z,83.30
2019-03-08T01:31:38.313Z,83.60
2019-03-08T01:34:04.479Z,83.50
2019-03-08T01:36:30.723Z,83.80
2019-03-08T01:38:57.206Z,83.30
2019-03-08T01:41:23.513Z,83.00
2019-03-08T01:43:49.752Z,83.40
2019-03-08T01:46:15.951Z,83.30
2019-03-08T01:48:45.015Z,83.40
2019-03-08T01:51:11.383Z,83.10
2019-03-08T01:53:40.538Z,83.20
2019-03-08T01:56:09.752Z,83.20
2019-03-08T01:58:35.938Z,83.40
2019-03-08T02:01:02.430Z,83.40
2019-03-08T02:03:28.630Z,83.00
2019-03-08T02:05:54.926Z,83.30
2019-03-08T02:08:21.245Z,83.80
2019-03-08T02:10:47.540Z,83.80
2019-03-08T02:13:14.077Z,83.80
2019-03-08T02:15:40.244Z,83.80
2019-03-08T02:18:06.506Z,84.10
2019-03-08T02:20:32.786Z,84.40
2019-03-08T02:22:59.192Z,84.10
2019-03-08T02:25:27.960Z,83.80
2019-03-08T02:27:54.199Z,84.40
2019-03-08T02:30:20.811Z,84.20
2019-03-08T02:32:49.678Z,83.80
2019-03-08T02:35:19.253Z,83.70
2019-03-08T02:37:45.428Z,84.00
2019-03-08T02:40:27.737Z,84.30
2019-03-08T02:43:05.335Z,83.90
2019-03-08T02:45:31.864Z,84.00
2019-03-08T02:47:58.080Z,84.30
2019-03-08T02:50:24.273Z,84.30
2019-03-08T02:52:50.708Z,84.20
2019-03-08T02:55:17.109Z,84.30
2019-03-08T02:57:43.353Z,83.90
2019-03-08T03:00:13.054Z,83.50
2019-03-08T03:02:39.256Z,82.90
2019-03-08T03:05:06.055Z,83.20
2019-03-08T03:07:34.992Z,83.80
2019-03-08T03:10:01.197Z,83.50
2019-03-08T03:12:27.486Z,83.50
2019-03-08T03:14:56.758Z,84.20
2019-03-08T03:17:23.041Z,83.80
2019-03-08T03:19:49.242Z,84.10
2019-03-08T03:22:15.566Z,84.50
2019-03-08T03:24:41.775Z,84.20
2019-03-08T03:27:07.972Z,84.20
2019-03-08T03:29:34.155Z,83.40
2019-03-08T03:32:00.746Z,84.00
2019-03-08T03:34:26.950Z,83.60
2019-03-08T03:36:53.176Z,83.20
2019-03-08T03:39:19.360Z,83.70
2019-03-08T03:41:45.662Z,84.70
2019-03-08T03:44:11.931Z,83.60
2019-03-08T03:46:38.666Z,83.20
2019-03-08T03:49:04.962Z,83.90
2019-03-08T03:51:49.631Z,84.30
2019-03-08T03:54:15.825Z,84.30
2019-03-08T03:56:42.112Z,83.80
2019-03-08T03:59:10.840Z,84.40
2019-03-08T04:01:39.026Z,84.20
2019-03-08T04:04:05.262Z,83.80
2019-03-08T04:06:31.467Z,83.90
2019-03-08T04:08:57.726Z,83.50
2019-03-08T04:11:24.020Z,83.70
2019-03-08T04:13:50.226Z,83.90
2019-03-08T04:16:16.410Z,83.90
2019-03-08T04:18:42.650Z,83.30
2019-03-08T04:21:09.150Z,83.50
2019-03-08T04:23:35.356Z,83.60
2019-03-08T04:26:01.541Z,83.60
2019-03-08T04:28:44.818Z,84.10
2019-03-08T04:31:13.762Z,84.10
2019-03-08T04:33:39.950Z,84.10
2019-03-08T04:36:06.270Z,84.20
2019-03-08T04:38:32.625Z,84.30
2019-03-08T04:40:59.036Z,84.30
2019-03-08T04:43:25.369Z,84.30
2019-03-08T04:45:51.564Z,84.00
2019-03-08T04:48:17.744Z,84.10
2019-03-08T04:50:43.971Z,84.30
2019-03-08T04:53:10.457Z,84.20
2019-03-08T04:55:36.738Z,84.10
2019-03-08T04:58:02.921Z,84.30
2019-03-08T05:00:29.095Z,84.00
2019-03-08T05:02:55.271Z,84.30
2019-03-08T05:05:40.808Z,84.50
2019-03-08T05:08:07.008Z,84.60
2019-03-08T05:10:33.262Z,84.80
2019-03-08T05:12:59.461Z,85.10
2019-03-08T05:15:25.630Z,84.60
2019-03-08T05:17:51.827Z,84.20
2019-03-08T05:20:18.061Z,84.30
2019-03-08T05:22:44.390Z,83.80
2019-03-08T05:25:12.390Z,83.80
2019-03-08T05:27:41.286Z,83.70
2019-03-08T05:30:13.348Z,83.70
2019-03-08T05:32:42.300Z,84.00
2019-03-08T05:35:08.973Z,84.00
2019-03-08T05:37:37.916Z,84.10
2019-03-08T05:40:07.122Z,84.20
2019-03-08T05:42:36.196Z,84.60
2019-03-08T05:45:05.449Z,84.00
2019-03-08T05:47:31.661Z,84.00
2019-03-08T05:49:57.857Z,84.00
2019-03-08T05:52:24.248Z,83.80
2019-03-08T05:54:53.346Z,83.70
2019-03-08T05:57:19.767Z,84.30
2019-03-08T05:59:46.108Z,84.10
2019-03-08T06:02:12.268Z,83.80
2019-03-08T06:04:41.147Z,83.80
2019-03-08T06:07:07.343Z,83.60
2019-03-08T06:09:33.558Z,83.90
2019-03-08T06:11:59.778Z,83.50
2019-03-08T06:14:26.357Z,83.50
2019-03-08T06:16:52.771Z,83.70
2019-03-08T06:19:31.378Z,83.70
2019-03-08T06:21:57.589Z,83.90
2019-03-08T06:24:23.952Z,84.00
2019-03-08T06:26:50.231Z,83.60
2019-03-08T06:29:18.180Z,83.40
2019-03-08T06:31:44.567Z,83.10
2019-03-08T06:34:10.875Z,83.10
2019-03-08T06:36:37.052Z,83.10
2019-03-08T06:39:05.253Z,83.10
2019-03-08T06:41:31.427Z,82.80
2019-03-08T06:43:57.608Z,82.90
2019-03-08T06:46:23.793Z,82.50
2019-03-08T06:49:09.161Z,82.90
2019-03-08T06:51:38.231Z,82.50
2019-03-08T06:54:05.016Z,82.60
2019-03-08T06:56:31.261Z,83.00
2019-03-08T06:58:59.491Z,82.50
2019-03-08T07:01:25.970Z,82.50
2019-03-08T07:03:52.179Z,82.10
2019-03-08T07:06:37.048Z,81.90
2019-03-08T07:09:04.781Z,81.80
2019-03-08T07:11:34.262Z,81.90
2019-03-08T07:14:02.873Z,81.50
2019-03-08T07:16:29.078Z,81.50
2019-03-08T07:18:55.330Z,81.70
2019-03-08T07:21:26.545Z,81.60
2019-03-08T07:23:57.206Z,82.10
2019-03-08T07:26:40.662Z,82.60
2019-03-08T07:29:11.830Z,82.90
2019-03-08T07:31:49.101Z,82.70
2019-03-08T07:34:32.369Z,83.40
2019-03-08T07:37:03.680Z,82.90
2019-03-08T07:39:49.920Z,82.00
2019-03-08T07:42:36.139Z,81.70
2019-03-08T07:45:24.293Z,81.60
2019-03-08T07:47:52.657Z,81.70
2019-03-08T07:50:23.579Z,81.40
2019-03-08T07:52:51.646Z,81.50
2019-03-08T07:55:22.804Z,81.00
2019-03-08T07:57:50.905Z,79.80
2019-03-08T08:00:19.018Z,80.90
2019-03-08T08:02:52.739Z,81.10
2019-03-08T08:05:45.046Z,80.40
2019-03-08T08:08:39.001Z,80.50
2019-03-08T08:11:26.436Z,81.20
2019-03-08T08:13:57.179Z,81.70
2019-03-08T08:16:37.127Z,81.70
2019-03-08T08:19:17.425Z,81.50
2019-03-08T08:21:45.621Z,79.70
2019-03-08T08:24:13.801Z,80.40
2019-03-08T08:26:41.906Z,80.80
2019-03-08T08:29:22.025Z,80.30
2019-03-08T08:31:56.742Z,80.50
2019-03-08T08:34:27.544Z,80.40
2019-03-08T08:37:04.369Z,80.50
2019-03-08T08:39:41.099Z,77.50
2019-03-08T08:42:14.818Z,77.30
2019-03-08T08:44:57.571Z,76.40
2019-03-08T08:47:31.496Z,76.40
2019-03-08T08:50:08.397Z,77.40
2019-03-08T08:52:54.846Z,76.80
2019-03-08T08:55:31.284Z,75.90
2019-03-08T08:58:02.096Z,77.50
2019-03-08T09:00:35.555Z,75.80
2019-03-08T09:03:28.102Z,75.40
2019-03-08T09:05:56.514Z,76.60
2019-03-08T09:08:39.616Z,75.70
2019-03-08T09:11:10.506Z,74.70
2019-03-08T09:13:38.573Z,73.00
2019-03-08T09:16:06.681Z,73.50
2019-03-08T09:18:51.471Z,73.90
2019-03-08T09:21:40.840Z,71.80
2019-03-08T09:24:11.670Z,70.10
2019-03-08T09:27:15.389Z,70.60
2019-03-08T09:29:55.281Z,71.50
2019-03-08T09:32:29.983Z,73.70
2019-03-08T09:34:58.169Z,73.40
2019-03-08T09:37:26.273Z,71.30
2019-03-08T09:40:09.503Z,71.00
2019-03-08T09:42:52.563Z,71.80
2019-03-08T09:45:20.657Z,71.50
2019-03-08T09:48:03.936Z,69.20
2019-03-08T09:50:59.846Z,69.20
2019-03-08T09:53:30.540Z,67.50
2019-03-08T09:55:58.765Z,67.50
2019-03-08T09:58:43.320Z,68.40
2019-03-08T10:01:17.345Z,69.20
2019-03-08T10:03:54.235Z,66.50
2019-03-08T10:06:25.373Z,67.80
2019-03-08T10:08:59.343Z,67.50
2019-03-08T10:11:58.045Z,67.60
2019-03-08T10:14:29.004Z,67.20
2019-03-08T10:17:09.584Z,68.50
2019-03-08T10:19:53.174Z,66.60
2019-03-08T10:22:26.522Z,68.40
2019-03-08T10:25:01.042Z,69.60
2019-03-08T10:27:37.597Z,68.40
2019-03-08T10:29:59.206Z,64.90
2019-03-08T10:32:45.782Z,64.10
2019-03-08T10:35:35.142Z,64.10
2019-03-08T10:38:11.703Z,63.20
2019-03-08T10:41:04.111Z,63.60
2019-03-08T10:43:41.033Z,62.70
2019-03-08T10:46:30.398Z,63.50
2019-03-08T10:49:01.306Z,63.70
2019-03-08T10:51:47.886Z,62.10
2019-03-08T10:54:18.743Z,61.30
2019-03-08T10:57:05.157Z,60.30
2019-03-08T10:59:39.359Z,59.80
2019-03-08T11:02:07.923Z,61.70
2019-03-08T11:04:38.811Z,61.30
2019-03-08T11:07:09.987Z,60.70
2019-03-08T11:09:49.951Z,59.80
2019-03-08T11:12:29.437Z,60.80
2019-03-08T11:15:00.518Z,59.90
2019-03-08T11:17:35.143Z,62.20
2019-03-08T11:20:37.782Z,60.70
2019-03-08T11:23:25.534Z,58.60
2019-03-08T11:25:53.818Z,58.90
2019-03-08T11:28:30.826Z,59.50
2019-03-08T11:31:01.790Z,60.90
2019-03-08T11:34:05.548Z,57.70
2019-03-08T11:36:36.270Z,58.20
2019-03-08T11:39:08.180Z,59.30
2019-03-08T11:41:39.308Z,57.20
2019-03-08T11:44:15.852Z,56.60
2019-03-08T11:46:49.749Z,54.30
2019-03-08T11:49:20.444Z,54.10
2019-03-08T11:51:53.884Z,54.40
2019-03-08T11:54:57.742Z,56.00
2019-03-08T11:57:44.367Z,53.50
2019-03-08T12:00:15.584Z,53.60
2019-03-08T12:03:08.339Z,54.10
2019-03-08T12:05:36.419Z,53.60
2019-03-08T12:08:04.717Z,54.60
2019-03-08T12:10:35.436Z,55.30
2019-03-08T12:13:24.864Z,52.80
2019-03-08T12:15:55.736Z,52.70
2019-03-08T12:18:45.013Z,54.50
2019-03-08T12:21:18.860Z,53.80
2019-03-08T12:24:05.035Z,53.00
2019-03-08T12:26:42.176Z,54.30
2019-03-08T12:29:12.941Z,54.90
2019-03-08T12:31:47.797Z,53.60
2019-03-08T12:34:31.065Z,54.50
2019-03-08T12:37:18.735Z,54.00
2019-03-08T12:40:05.315Z,52.20
2019-03-08T12:42:52.116Z,53.50
2019-03-08T12:45:23.129Z,54.40
2019-03-08T12:47:51.351Z,54.30
2019-03-08T12:50:25.453Z,54.10
2019-03-08T12:52:56.375Z,54.00
2019-03-08T12:55:36.221Z,54.40
2019-03-08T12:58:07.445Z,53.10
2019-03-08T13:00:35.618Z,52.50
2019-03-08T13:03:09.742Z,53.70
2019-03-08T13:05:37.799Z,54.80
2019-03-08T13:08:24.328Z,53.00
2019-03-08T13:10:50.524Z,54.00
2019-03-08T13:13:19.569Z,54.40
2019-03-08T13:15:45.881Z,54.80
2019-03-08T13:18:14.856Z,55.00
2019-03-08T13:20:41.518Z,53.80
2019-03-08T13:23:10.563Z,54.30
2019-03-08T13:25:55.616Z,52.80
2019-03-08T13:28:22.317Z,52.60
2019-03-08T13:30:48.595Z,52.70
2019-03-08T13:33:15.248Z,52.40
2019-03-08T13:35:44.013Z,51.00
2019-03-08T13:38:10.239Z,48.10
2019-03-08T13:40:36.600Z,48.40
2019-03-08T13:43:03.513Z,49.30
2019-03-08T13:45:30.032Z,50.10
2019-03-08T13:47:56.314Z,50.90
2019-03-08T13:50:22.499Z,51.50
2019-03-08T13:52:48.688Z,51.80
2019-03-08T13:55:15.839Z,52.90
2019-03-08T13:57:44.835Z,53.90
2019-03-08T14:00:17.961Z,53.30
2019-03-08T14:02:44.241Z,56.10
2019-03-08T14:05:10.839Z,49.00
2019-03-08T14:07:55.815Z,49.10
2019-03-08T14:10:24.937Z,41.80
2019-03-08T14:13:10.077Z,38.70
2019-03-08T14:15:39.414Z,32.20
2019-03-08T14:18:24.520Z,31.20
2019-03-08T14:20:53.735Z,30.50
2019-03-08T14:23:23.098Z,30.90
2019-03-08T14:25:49.628Z,30.40
2019-03-08T14:28:15.823Z,27.00
2019-03-08T14:30:46.587Z,28.00
2019-03-08T14:33:15.634Z,30.70
2019-03-08T14:35:41.876Z,35.30
2019-03-08T14:38:08.075Z,38.00
2019-03-08T14:40:45.488Z,41.50
2019-03-08T14:43:16.978Z,43.40
2019-03-08T14:45:54.890Z,44.50
2019-03-08T14:48:23.983Z,44.60
2019-03-08T14:51:09.308Z,48.70
2019-03-08T14:53:37.345Z,45.10
2019-03-08T14:56:22.253Z,40.50
2019-03-08T14:58:48.441Z,38.60
2019-03-08T15:01:14.605Z,42.60
2019-03-08T15:03:43.855Z,42.40
2019-03-08T15:06:09.008Z,42.10
2019-03-08T15:08:35.291Z,42.70
2019-03-08T15:11:04.221Z,42.90
2019-03-08T15:13:30.401Z,42.90
2019-03-08T15:16:12.387Z,35.70
2019-03-08T15:18:38.575Z,32.60
2019-03-08T15:21:05.067Z,32.90
2019-03-08T15:23:31.549Z,33.30
2019-03-08T15:26:00.583Z,34.70
2019-03-08T15:28:45.691Z,37.20
2019-03-08T15:31:11.954Z,39.20
2019-03-08T15:33:38.112Z,39.80
2019-03-08T15:36:07.043Z,40.10
2019-03-08T15:38:33.356Z,41.00
2019-03-08T15:40:59.774Z,42.00
2019-03-08T15:43:47.037Z,42.90
2019-03-08T15:46:12.694Z,43.80
2019-03-08T15:48:39.019Z,43.60
2019-03-08T15:51:05.454Z,44.30
2019-03-08T15:53:34.738Z,44.30
2019-03-08T15:56:16.343Z,44.00
2019-03-08T15:58:42.524Z,44.20
2019-03-08T16:01:08.971Z,44.70
2019-03-08T16:03:38.111Z,44.80
2019-03-08T16:06:06.409Z,45.20
2019-03-08T16:08:35.892Z,45.50
2019-03-08T16:11:00.923Z,45.60
2019-03-08T16:13:33.133Z,45.70
2019-03-08T16:16:02.011Z,45.90
2019-03-08T16:18:28.232Z,45.20
2019-03-08T16:20:54.626Z,45.60
2019-03-08T16:23:39.307Z,46.10
2019-03-08T16:26:06.637Z,46.50
2019-03-08T16:28:33.222Z,46.70
2019-03-08T16:31:16.845Z,47.20
2019-03-08T16:34:03.612Z,47.30
2019-03-08T16:36:34.689Z,47.40
2019-03-08T16:39:24.896Z,47.70
2019-03-08T16:42:11.586Z,47.40
2019-03-08T16:44:45.657Z,47.70
2019-03-08T16:47:34.451Z,47.90
2019-03-08T16:50:02.841Z,48.20
2019-03-08T16:52:55.023Z,48.40
2019-03-08T16:55:42.399Z,48.40
2019-03-08T16:58:19.849Z,48.70
2019-03-08T17:01:06.477Z,49.00
2019-03-08T17:03:53.716Z,49.30
2019-03-08T17:06:30.208Z,49.40
2019-03-08T17:09:22.809Z,49.70
2019-03-08T17:11:58.049Z,49.60
2019-03-08T17:14:42.752Z,49.90
2019-03-08T17:17:19.433Z,49.80
2019-03-08T17:19:50.348Z,50.10
2019-03-08T17:22:30.976Z,50.10
2019-03-08T17:25:15.919Z,50.40
2019-03-08T17:27:53.382Z,50.60
2019-03-08T17:30:33.713Z,50.70
2019-03-08T17:33:13.286Z,50.70
2019-03-08T17:35:50.278Z,51.00
2019-03-08T17:38:38.861Z,51.10
2019-03-08T17:41:24.052Z,51.30
2019-03-08T17:43:58.007Z,51.60
2019-03-08T17:46:43.981Z,51.60
2019-03-08T17:49:31.671Z,51.80
2019-03-08T17:51:59.863Z,51.70
2019-03-08T17:54:28.078Z,52.10
2019-03-08T17:57:01.939Z,52.10
2019-03-08T17:59:32.736Z,52.10
2019-03-08T18:02:16.329Z,52.20
2019-03-08T18:04:47.110Z,52.30
2019-03-08T18:07:33.410Z,52.30
2019-03-08T18:10:10.404Z,52.40
2019-03-08T18:12:47.205Z,52.20
2019-03-08T18:15:17.943Z,52.30
2019-03-08T18:17:54.853Z,52.30
2019-03-08T18:20:39.603Z,52.60
2019-03-08T18:23:25.894Z,52.60
2019-03-08T18:25:57.291Z,52.30
2019-03-08T18:28:31.099Z,52.40
2019-03-08T18:30:59.379Z,52.00
2019-03-08T18:33:27.637Z,52.40
2019-03-08T18:35:55.902Z,52.60
2019-03-08T18:38:45.206Z,52.40
2019-03-08T18:41:31.368Z,52.50
2019-03-08T18:44:16.099Z,52.60
2019-03-08T18:47:21.415Z,52.60
2019-03-08T18:50:01.032Z,52.80
2019-03-08T18:52:45.482Z,52.80
2019-03-08T18:55:31.674Z,52.90
2019-03-08T18:58:27.208Z,53.10
2019-03-08T19:01:01.157Z,53.10
2019-03-08T19:03:48.568Z,53.20
2019-03-08T19:06:36.290Z,53.30
2019-03-08T19:09:09.548Z,53.40
2019-03-08T19:11:56.290Z,53.60
2019-03-08T19:14:45.230Z,53.40
2019-03-08T19:17:19.401Z,53.50
2019-03-08T19:19:53.180Z,53.70
2019-03-08T19:22:26.694Z,53.50
2019-03-08T19:25:08.739Z,53.40
2019-03-08T19:27:36.998Z,53.40
2019-03-08T19:30:42.574Z,53.60
2019-03-08T19:33:37.620Z,53.60
2019-03-08T19:36:17.236Z,53.80
2019-03-08T19:38:48.406Z,53.60
2019-03-08T19:41:34.078Z,53.90
2019-03-08T19:44:11.187Z,53.90
2019-03-08T19:46:56.373Z,53.70
2019-03-08T19:49:45.076Z,54.00
2019-03-08T19:52:15.842Z,53.90
2019-03-08T19:54:49.285Z,54.20
2019-03-08T19:57:20.340Z,54.00
2019-03-08T20:00:06.570Z,53.90
2019-03-08T20:02:42.254Z,54.10
2019-03-08T20:05:47.766Z,53.70
2019-03-08T20:08:21.371Z,54.20
2019-03-08T20:10:52.764Z,54.40
2019-03-08T20:13:20.974Z,54.70
2019-03-08T20:15:54.727Z,54.60
2019-03-08T20:18:23.045Z,54.50
2019-03-08T20:21:12.226Z,54.60
2019-03-08T20:24:04.119Z,54.70
2019-03-08T20:26:50.478Z,54.50
2019-03-08T20:29:27.311Z,54.80
2019-03-08T20:32:31.939Z,55.20
2019-03-08T20:35:05.837Z,55.30
2019-03-08T20:37:58.176Z,55.60
2019-03-08T20:40:44.485Z,55.50
2019-03-08T20:43:15.774Z,55.70
2019-03-08T20:45:46.606Z,55.90
2019-03-08T20:48:12.906Z,55.70
2019-03-08T20:50:41.782Z,55.60
2019-03-08T20:53:07.993Z,55.70
2019-03-08T20:55:34.276Z,56.10
2019-03-08T20:58:00.526Z,55.80
2019-03-08T21:00:26.700Z,55.70
2019-03-08T21:02:52.896Z,55.90
2019-03-08T21:05:37.997Z,56.00
2019-03-08T21:08:04.187Z,55.70
2019-03-08T21:10:49.208Z,56.10
2019-03-08T21:13:15.418Z,56.10
2019-03-08T21:15:41.675Z,56.30
2019-03-08T21:18:26.803Z,57.00
2019-03-08T21:20:53.153Z,56.60
2019-03-08T21:23:22.039Z,56.60
2019-03-08T21:25:48.313Z,56.90
2019-03-08T21:28:14.512Z,56.80
2019-03-08T21:30:40.711Z,56.80
2019-03-08T21:33:07.012Z,56.80
2019-03-08T21:35:36.020Z,57.00
2019-03-08T21:38:02.258Z,56.90
2019-03-08T21:40:28.621Z,56.90
2019-03-08T21:42:54.968Z,57.30
2019-03-08T21:45:23.965Z,57.40
2019-03-08T21:47:50.191Z,57.50
2019-03-08T21:50:16.776Z,57.10
2019-03-08T21:52:49.236Z,57.30
2019-03-08T21:55:15.439Z,57.30
2019-03-08T21:57:41.658Z,57.20
2019-03-08T22:00:14.648Z,57.50
2019-03-08T22:02:41.162Z,57.50
2019-03-08T22:05:07.881Z,57.50
2019-03-08T22:07:36.751Z,57.60
2019-03-08T22:10:11.416Z,57.40
2019-03-08T22:12:40.343Z,57.40
2019-03-08T22:15:07.791Z,57.60
2019-03-08T22:17:36.587Z,57.80
2019-03-08T22:20:05.311Z,58.00
2019-03-08T22:22:31.874Z,57.90
2019-03-08T22:24:58.127Z,57.80
2019-03-08T22:27:24.299Z,57.60
2019-03-08T22:29:50.489Z,57.90
2019-03-08T22:32:16.765Z,57.90
2019-03-08T22:34:42.974Z,57.70
2019-03-08T22:37:09.146Z,57.60
2019-03-08T22:39:35.453Z,57.60
2019-03-08T22:42:04.405Z,58.10
2019-03-08T22:44:30.596Z,58.50
2019-03-08T22:46:56.985Z,60.40
2019-03-08T22:49:23.276Z,61.90
2019-03-08T22:51:49.500Z,63.00
2019-03-08T22:54:15.788Z,63.80
2019-03-08T22:56:42.063Z,64.20
2019-03-08T22:59:08.282Z,64.50
2019-03-08T23:01:39.175Z,64.90
2019-03-08T23:04:05.462Z,65.20
2019-03-08T23:06:31.699Z,65.50
2019-03-08T23:08:57.936Z,65.80
2019-03-08T23:11:24.135Z,66.40
2019-03-08T23:13:50.333Z,66.40
2019-03-08T23:16:16.566Z,66.70
2019-03-08T23:18:42.838Z,66.80
2019-03-08T23:21:09.458Z,67.40
2019-03-08T23:23:38.408Z,67.10
2019-03-08T23:26:04.593Z,67.20
2019-03-08T23:28:41.680Z,67.30
2019-03-08T23:31:13.065Z,67.10
2019-03-08T23:33:39.354Z,67.20
2019-03-08T23:36:05.632Z,67.60
2019-03-08T23:38:44.287Z,67.60
2019-03-08T23:41:10.519Z,68.00
2019-03-08T23:43:36.911Z,68.40
2019-03-08T23:46:03.229Z,68.60
2019-03-08T23:48:29.431Z,68.40
2019-03-08T23:50:56.126Z,68.70
2019-03-08T23:53:22.298Z,69.30
2019-03-08T23:55:48.473Z,69.50
2019-03-08T23:58:14.644Z,70.10
